createdAt,value
2018-07-12T00:02:01.981Z,71.60
2018-07-12T00:04:04.720Z,71.50
2018-07-12T00:06:07.479Z,71.60
2018-07-12T00:08:10.196Z,71.60
2018-07-12T00:10:12.938Z,71.30
2018-07-12T00:14:16.532Z,71.00
2018-07-12T00:16:19.303Z,70.90
2018-07-12T00:18:22.006Z,71.00
2018-07-12T00:20:24.772Z,71.30
2018-07-12T00:22:27.495Z,71.70
2018-07-12T00:24:30.263Z,71.30
2018-07-12T00:26:32.966Z,71.20
2018-07-12T00:28:35.730Z,71.20
2018-07-12T00:30:38.458Z,71.10
2018-07-12T00:32:41.301Z,71.20
2018-07-12T00:34:44.046Z,71.20
2018-07-12T00:36:46.757Z,71.20
2018-07-12T00:38:49.465Z,71.10
2018-07-12T00:40:52.207Z,71.10
2018-07-12T00:44:58.786Z,71.10
2018-07-12T00:47:01.541Z,71.10
2018-07-12T00:49:04.306Z,70.90
2018-07-12T00:51:07.045Z,70.80
2018-07-12T00:53:09.771Z,70.90
2018-07-12T00:55:12.722Z,70.80
2018-07-12T00:57:15.435Z,70.80
2018-07-12T00:59:18.158Z,70.70
2018-07-12T01:01:22.405Z,70.70
2018-07-12T01:03:25.409Z,70.50
2018-07-12T01:05:29.900Z,70.50
2018-07-12T01:07:34.574Z,70.50
2018-07-12T01:09:38.506Z,70.40
2018-07-12T01:11:43.186Z,70.40
2018-07-12T01:13:46.334Z,70.40
2018-07-12T01:15:49.235Z,70.40
2018-07-12T01:17:52.188Z,70.30
2018-07-12T01:19:57.306Z,70.30
2018-07-12T01:22:02.347Z,70.30
2018-07-12T01:24:06.267Z,70.30
2018-07-12T01:26:11.033Z,70.40
2018-07-12T01:28:16.360Z,70.30
2018-07-12T01:30:19.574Z,70.30
2018-07-12T01:32:22.911Z,70.20
2018-07-12T01:34:25.974Z,70.20
2018-07-12T01:36:29.917Z,70.20
2018-07-12T01:38:32.903Z,70.20
2018-07-12T01:40:35.921Z,70.30
2018-07-12T01:42:39.869Z,70.30
2018-07-12T01:44:43.855Z,70.20
2018-07-12T01:46:47.607Z,70.10
2018-07-12T01:48:51.554Z,70.00
2018-07-12T01:50:55.626Z,70.00
2018-07-12T01:52:59.290Z,70.10
2018-07-12T01:55:03.343Z,70.20
2018-07-12T01:57:08.283Z,70.20
2018-07-12T01:59:12.238Z,70.30
2018-07-12T02:01:17.876Z,70.40
2018-07-12T02:03:20.730Z,70.40
2018-07-12T02:05:24.310Z,70.30
2018-07-12T02:07:27.095Z,70.50
2018-07-12T02:09:31.324Z,71.10
2018-07-12T02:11:34.216Z,70.30
2018-07-12T02:13:39.020Z,70.30
2018-07-12T02:15:43.004Z,70.20
2018-07-12T02:17:46.975Z,70.40
2018-07-12T02:19:51.335Z,70.30
2018-07-12T02:21:55.392Z,70.30
2018-07-12T02:23:59.263Z,70.20
2018-07-12T02:26:03.432Z,70.40
2018-07-12T02:28:06.277Z,70.40
2018-07-12T02:30:09.031Z,70.40
2018-07-12T02:32:11.794Z,70.50
2018-07-12T02:34:14.596Z,70.50
2018-07-12T02:36:17.355Z,70.60
2018-07-12T02:38:20.059Z,70.60
2018-07-12T02:40:22.814Z,70.70
2018-07-12T02:42:25.567Z,70.70
2018-07-12T02:44:28.299Z,70.60
2018-07-12T02:46:31.007Z,70.70
2018-07-12T02:48:33.737Z,71.00
2018-07-12T02:50:36.458Z,70.90
2018-07-12T02:52:39.220Z,70.80
2018-07-12T02:54:42.000Z,70.90
2018-07-12T02:56:45.218Z,70.90
2018-07-12T02:58:47.931Z,71.30
2018-07-12T03:00:50.693Z,71.00
2018-07-12T03:02:53.451Z,71.20
2018-07-12T03:04:56.224Z,71.10
2018-07-12T03:06:58.983Z,71.10
2018-07-12T03:09:01.702Z,71.10
2018-07-12T03:11:05.216Z,71.10
2018-07-12T03:13:07.953Z,71.00
2018-07-12T03:15:10.729Z,70.90
2018-07-12T03:17:13.492Z,70.80
2018-07-12T03:21:20.023Z,70.80
2018-07-12T03:23:22.785Z,70.90
2018-07-12T03:25:25.571Z,70.90
2018-07-12T03:27:28.338Z,70.80
2018-07-12T03:29:31.088Z,70.70
2018-07-12T03:31:33.811Z,70.70
2018-07-12T03:33:36.638Z,70.60
2018-07-12T03:35:39.380Z,70.60
2018-07-12T03:37:42.159Z,70.50
2018-07-12T03:39:45.525Z,70.60
2018-07-12T03:41:48.273Z,70.60
2018-07-12T03:43:51.004Z,70.60
2018-07-12T03:45:53.755Z,70.70
2018-07-12T03:47:56.519Z,70.70
2018-07-12T03:49:59.266Z,70.70
2018-07-12T03:52:02.014Z,70.80
2018-07-12T03:54:05.649Z,70.80
2018-07-12T03:56:08.350Z,70.80
2018-07-12T03:58:11.241Z,70.90
2018-07-12T04:02:18.824Z,71.00
2018-07-12T04:04:23.666Z,71.20
2018-07-12T04:06:27.926Z,71.20
2018-07-12T04:08:30.706Z,71.30
2018-07-12T04:10:35.483Z,71.20
2018-07-12T04:12:39.557Z,71.20
2018-07-12T04:14:44.545Z,71.20
2018-07-12T04:16:48.727Z,70.90
2018-07-12T04:18:52.995Z,70.90
2018-07-12T04:20:55.846Z,70.60
2018-07-12T04:22:58.590Z,70.70
2018-07-12T04:25:01.333Z,70.70
2018-07-12T04:27:04.079Z,70.60
2018-07-12T04:29:06.891Z,70.60
2018-07-12T04:31:09.600Z,70.50
2018-07-12T04:33:12.345Z,70.50
2018-07-12T04:35:15.076Z,70.40
2018-07-12T04:37:18.220Z,70.30
2018-07-12T04:39:20.974Z,70.20
2018-07-12T04:41:23.692Z,70.20
2018-07-12T04:43:26.527Z,70.10
2018-07-12T04:45:29.346Z,70.10
2018-07-12T04:47:32.091Z,70.10
2018-07-12T04:49:34.836Z,70.10
2018-07-12T04:51:37.590Z,70.20
2018-07-12T04:53:40.328Z,70.30
2018-07-12T04:57:46.030Z,70.70
2018-07-12T04:59:48.755Z,70.70
2018-07-12T05:01:51.479Z,71.10
2018-07-12T05:03:54.227Z,71.10
2018-07-12T05:08:00.075Z,71.40
2018-07-12T05:10:02.846Z,71.40
2018-07-12T05:12:06.214Z,71.60
2018-07-12T05:14:08.967Z,71.80
2018-07-12T05:16:11.739Z,72.00
2018-07-12T05:18:14.538Z,72.10
2018-07-12T05:20:17.242Z,72.20
2018-07-12T05:22:20.119Z,72.20
2018-07-12T05:24:22.843Z,73.20
2018-07-12T05:26:26.371Z,72.40
2018-07-12T05:28:29.261Z,72.60
2018-07-12T05:30:31.978Z,72.60
2018-07-12T05:32:34.715Z,72.60
2018-07-12T05:34:37.475Z,72.60
2018-07-12T05:37:00.806Z,72.70
2018-07-12T05:41:11.630Z,72.70
2018-07-12T05:43:16.219Z,72.70
2018-07-12T05:45:20.698Z,72.70
2018-07-12T05:47:25.210Z,72.70
2018-07-12T05:49:29.685Z,73.50
2018-07-12T05:51:34.124Z,72.80
2018-07-12T05:53:38.611Z,72.80
2018-07-12T05:55:43.310Z,72.80
2018-07-12T05:57:48.350Z,72.80
2018-07-12T05:59:52.930Z,72.90
2018-07-12T06:02:14.449Z,72.50
2018-07-12T06:04:18.931Z,72.80
2018-07-12T06:06:23.477Z,72.90
2018-07-12T06:08:28.474Z,72.90
2018-07-12T06:10:33.607Z,72.90
2018-07-12T06:12:38.148Z,73.10
2018-07-12T06:16:47.234Z,72.70
2018-07-12T06:18:51.910Z,73.50
2018-07-12T06:20:56.363Z,72.30
2018-07-12T06:23:01.607Z,72.40
2018-07-12T06:25:06.650Z,72.40
2018-07-12T06:27:11.182Z,72.10
2018-07-12T06:29:15.695Z,71.90
2018-07-12T06:31:20.177Z,71.80
2018-07-12T06:33:24.701Z,72.00
2018-07-12T06:35:29.262Z,72.20
2018-07-12T06:37:33.707Z,72.20
2018-07-12T06:39:38.243Z,72.20
2018-07-12T06:41:42.737Z,72.20
2018-07-12T06:43:47.222Z,71.90
2018-07-12T06:45:51.757Z,71.90
2018-07-12T06:47:56.212Z,72.00
2018-07-12T06:50:00.731Z,72.10
2018-07-12T06:52:05.323Z,72.10
2018-07-12T06:54:09.840Z,72.20
2018-07-12T06:56:14.280Z,71.90
2018-07-12T06:58:23.794Z,71.80
2018-07-12T07:00:28.251Z,71.60
2018-07-12T07:02:32.706Z,71.50
2018-07-12T07:04:37.230Z,71.50
2018-07-12T07:06:42.519Z,70.80
2018-07-12T07:10:51.390Z,71.20
2018-07-12T07:12:55.892Z,71.20
2018-07-12T07:15:00.418Z,71.40
2018-07-12T07:17:04.962Z,71.40
2018-07-12T07:21:14.118Z,71.40
2018-07-12T07:23:18.731Z,70.90
2018-07-12T07:25:23.186Z,70.90
2018-07-12T07:27:27.675Z,70.80
2018-07-12T07:29:32.228Z,70.70
2018-07-12T07:31:36.687Z,70.90
2018-07-12T07:33:41.125Z,70.50
2018-07-12T07:35:45.785Z,69.70
2018-07-12T07:37:50.218Z,69.80
2018-07-12T07:39:55.093Z,70.20
2018-07-12T07:41:59.598Z,69.60
2018-07-12T07:44:04.199Z,69.90
2018-07-12T07:46:08.723Z,70.40
2018-07-12T07:48:13.433Z,70.50
2018-07-12T07:50:17.911Z,71.10
2018-07-12T07:52:22.460Z,70.60
2018-07-12T07:54:26.904Z,70.30
2018-07-12T07:56:31.377Z,70.30
2018-07-12T07:58:35.831Z,69.50
2018-07-12T08:00:40.316Z,69.60
2018-07-12T08:02:44.771Z,69.60
2018-07-12T08:04:50.314Z,69.30
2018-07-12T08:06:54.843Z,69.70
2018-07-12T08:08:59.383Z,69.40
2018-07-12T08:11:04.251Z,69.30
2018-07-12T08:15:14.586Z,68.90
2018-07-12T08:17:19.070Z,68.50
2018-07-12T08:19:23.545Z,68.20
2018-07-12T08:21:28.057Z,67.50
2018-07-12T08:23:32.516Z,66.70
2018-07-12T08:25:37.001Z,66.60
2018-07-12T08:27:58.409Z,67.10
2018-07-12T08:30:02.910Z,66.20
2018-07-12T08:32:07.483Z,65.20
2018-07-12T08:34:11.946Z,65.30
2018-07-12T08:36:16.480Z,65.40
2018-07-12T08:38:20.970Z,64.50
2018-07-12T08:40:25.556Z,64.10
2018-07-12T08:42:30.702Z,63.70
2018-07-12T08:44:35.175Z,64.00
2018-07-12T08:46:39.701Z,63.10
2018-07-12T08:48:44.161Z,62.20
2018-07-12T08:50:48.667Z,61.90
2018-07-12T08:52:53.126Z,61.60
2018-07-12T08:54:58.027Z,61.30
2018-07-12T08:57:02.514Z,61.70
2018-07-12T08:59:06.968Z,61.50
2018-07-12T09:01:11.477Z,61.10
2018-07-12T09:03:15.999Z,61.20
2018-07-12T09:05:20.528Z,61.20
2018-07-12T09:07:25.074Z,61.10
2018-07-12T09:09:29.519Z,60.50
2018-07-12T09:11:33.988Z,59.90
2018-07-12T09:13:38.495Z,59.80
2018-07-12T09:15:43.000Z,59.50
2018-07-12T09:17:47.451Z,59.90
2018-07-12T09:19:51.964Z,59.30
2018-07-12T09:21:56.481Z,59.50
2018-07-12T09:24:01.039Z,60.60
2018-07-12T09:26:05.598Z,59.70
2018-07-12T09:30:14.920Z,59.30
2018-07-12T09:32:19.404Z,59.30
2018-07-12T09:34:23.889Z,59.70
2018-07-12T09:36:28.358Z,60.40
2018-07-12T09:38:46.843Z,59.30
2018-07-12T09:40:51.291Z,59.30
2018-07-12T09:42:55.833Z,59.50
2018-07-12T09:45:00.734Z,59.80
2018-07-12T09:47:05.241Z,59.10
2018-07-12T09:49:11.789Z,59.50
2018-07-12T09:51:17.365Z,59.30
2018-07-12T09:55:26.048Z,58.70
2018-07-12T09:57:47.982Z,59.40
2018-07-12T09:59:53.566Z,59.30
2018-07-12T10:02:03.507Z,59.10
2018-07-12T10:04:08.039Z,59.00
2018-07-12T10:06:18.119Z,59.30
2018-07-12T10:08:27.802Z,59.30
2018-07-12T10:10:36.430Z,58.90
2018-07-12T10:14:51.886Z,58.50
2018-07-12T10:17:01.603Z,58.10
2018-07-12T10:19:06.059Z,57.90
2018-07-12T10:21:10.769Z,57.70
2018-07-12T10:23:15.252Z,57.60
2018-07-12T10:25:19.730Z,57.40
2018-07-12T10:31:32.519Z,57.40
2018-07-12T10:33:36.978Z,57.00
2018-07-12T10:35:41.467Z,56.70
2018-07-12T10:37:45.930Z,56.80
2018-07-12T10:39:50.601Z,56.90
2018-07-12T10:41:55.065Z,56.90
2018-07-12T10:43:59.628Z,56.30
2018-07-12T10:46:04.190Z,56.00
2018-07-12T10:48:08.842Z,56.10
2018-07-12T10:50:14.578Z,56.40
2018-07-12T10:52:19.095Z,56.00
2018-07-12T10:54:23.555Z,56.10
2018-07-12T10:56:28.060Z,56.10
2018-07-12T10:58:32.802Z,56.30
2018-07-12T11:00:37.342Z,55.20
2018-07-12T11:02:41.846Z,54.80
2018-07-12T11:04:46.324Z,54.50
2018-07-12T11:06:50.892Z,54.50
2018-07-12T11:08:55.351Z,54.10
2018-07-12T11:10:59.793Z,54.40
2018-07-12T11:15:19.111Z,54.10
2018-07-12T11:17:24.231Z,55.10
2018-07-12T11:19:28.751Z,55.00
2018-07-12T11:21:33.291Z,55.10
2018-07-12T11:23:37.805Z,55.20
2018-07-12T11:25:46.592Z,54.60
2018-07-12T11:27:51.233Z,54.10
2018-07-12T11:29:58.513Z,54.40
2018-07-12T11:32:03.033Z,53.70
2018-07-12T11:34:08.093Z,53.90
2018-07-12T11:36:12.803Z,53.80
2018-07-12T11:38:17.258Z,53.50
2018-07-12T11:40:21.709Z,53.90
2018-07-12T11:42:26.186Z,53.60
2018-07-12T11:46:35.716Z,53.90
2018-07-12T11:48:41.193Z,53.30
2018-07-12T11:50:45.742Z,54.60
2018-07-12T11:52:50.222Z,53.60
2018-07-12T11:54:54.626Z,53.40
2018-07-12T11:56:59.038Z,53.00
2018-07-12T11:59:03.518Z,52.10
2018-07-12T12:03:12.379Z,51.30
2018-07-12T12:05:16.904Z,50.70
2018-07-12T12:07:21.408Z,50.30
2018-07-12T12:11:30.032Z,50.50
2018-07-12T12:13:34.524Z,51.10
2018-07-12T12:15:38.962Z,51.50
2018-07-12T12:17:43.466Z,49.80
2018-07-12T12:19:47.978Z,49.30
2018-07-12T12:21:52.934Z,49.50
2018-07-12T12:23:57.482Z,49.10
2018-07-12T12:26:01.916Z,48.70
2018-07-12T12:28:06.613Z,49.40
2018-07-12T12:30:11.088Z,50.20
2018-07-12T12:32:15.546Z,49.40
2018-07-12T12:34:20.095Z,48.50
2018-07-12T12:36:24.648Z,48.60
2018-07-12T12:38:29.103Z,48.30
2018-07-12T12:40:33.598Z,48.30
2018-07-12T12:42:38.051Z,49.00
2018-07-12T12:44:42.503Z,48.40
2018-07-12T12:46:46.951Z,48.20
2018-07-12T12:48:52.207Z,47.90
2018-07-12T12:50:56.706Z,47.20
2018-07-12T12:53:01.224Z,47.00
2018-07-12T12:55:05.962Z,46.90
2018-07-12T12:57:10.411Z,46.50
2018-07-12T12:59:14.886Z,46.30
2018-07-12T13:01:19.372Z,46.20
2018-07-12T13:03:24.035Z,47.50
2018-07-12T13:05:28.563Z,47.90
2018-07-12T13:07:33.011Z,47.90
2018-07-12T13:09:38.476Z,49.70
2018-07-12T13:11:43.042Z,49.40
2018-07-12T13:13:47.906Z,49.50
2018-07-12T13:15:52.364Z,49.60
2018-07-12T13:17:57.302Z,49.60
2018-07-12T13:20:01.824Z,49.50
2018-07-12T13:22:06.442Z,49.80
2018-07-12T13:26:16.155Z,49.40
2018-07-12T13:30:24.872Z,48.30
2018-07-12T13:32:29.983Z,47.70
2018-07-12T13:34:34.508Z,47.80
2018-07-12T13:36:39.072Z,47.70
2018-07-12T13:38:43.647Z,47.40
2018-07-12T13:40:48.119Z,47.20
2018-07-12T13:44:58.840Z,47.70
2018-07-12T13:47:03.354Z,48.20
2018-07-12T13:49:07.803Z,48.90
2018-07-12T13:51:12.346Z,47.30
2018-07-12T13:53:16.865Z,47.10
2018-07-12T13:55:21.413Z,47.50
2018-07-12T13:57:25.951Z,47.40
2018-07-12T13:59:30.455Z,46.40
2018-07-12T14:01:35.162Z,48.10
2018-07-12T14:03:40.906Z,48.00
2018-07-12T14:05:45.573Z,49.40
2018-07-12T14:07:50.028Z,49.20
2018-07-12T14:09:54.530Z,50.50
2018-07-12T14:14:03.323Z,51.90
2018-07-12T14:16:07.815Z,52.10
2018-07-12T14:18:12.448Z,52.10
2018-07-12T14:20:16.943Z,52.50
2018-07-12T14:22:21.466Z,52.60
2018-07-12T14:26:30.162Z,53.30
2018-07-12T14:28:34.756Z,53.30
2018-07-12T14:30:39.310Z,53.40
2018-07-12T14:32:43.754Z,54.30
2018-07-12T14:34:48.475Z,54.10
2018-07-12T14:36:52.945Z,54.40
2018-07-12T14:38:57.455Z,54.50
2018-07-12T14:41:01.943Z,54.60
2018-07-12T14:43:06.417Z,55.00
2018-07-12T14:45:10.903Z,55.00
2018-07-12T14:49:19.534Z,55.40
2018-07-12T14:51:25.941Z,55.70
2018-07-12T14:53:30.427Z,56.00
2018-07-12T14:55:34.952Z,56.40
2018-07-12T14:57:39.409Z,57.40
2018-07-12T14:59:46.695Z,57.70
2018-07-12T15:01:52.068Z,58.20
2018-07-12T15:03:59.922Z,58.40
2018-07-12T15:06:07.943Z,58.60
2018-07-12T15:08:12.502Z,58.80
2018-07-12T15:12:23.004Z,59.40
2018-07-12T15:14:27.501Z,59.80
2018-07-12T15:16:34.091Z,60.00
2018-07-12T15:18:39.260Z,59.90
2018-07-12T15:20:43.783Z,59.80
2018-07-12T15:22:48.403Z,60.00
2018-07-12T15:24:53.009Z,60.20
2018-07-12T15:26:58.119Z,60.00
2018-07-12T15:29:02.859Z,59.60
2018-07-12T15:31:07.478Z,59.40
2018-07-12T15:33:12.758Z,59.20
2018-07-12T15:35:17.263Z,58.90
2018-07-12T15:37:22.271Z,58.90
2018-07-12T15:39:26.783Z,58.80
2018-07-12T15:41:31.198Z,58.50
2018-07-12T15:43:35.761Z,58.40
2018-07-12T15:45:40.230Z,58.40
2018-07-12T15:47:44.691Z,58.20
2018-07-12T15:49:49.198Z,57.90
2018-07-12T15:51:54.668Z,58.10
2018-07-12T15:53:59.142Z,57.70
2018-07-12T15:56:03.618Z,58.30
2018-07-12T15:58:08.046Z,58.50
2018-07-12T16:00:13.150Z,58.50
2018-07-12T16:02:18.612Z,58.60
2018-07-12T16:04:23.231Z,58.80
2018-07-12T16:06:27.798Z,58.80
2018-07-12T16:08:32.253Z,59.20
2018-07-12T16:10:36.900Z,59.30
2018-07-12T16:12:41.390Z,59.50
2018-07-12T16:14:45.891Z,59.70
2018-07-12T16:16:50.370Z,59.70
2018-07-12T16:18:54.868Z,59.90
2018-07-12T16:20:59.467Z,59.40
2018-07-12T16:25:08.096Z,60.20
2018-07-12T16:27:12.578Z,60.50
2018-07-12T16:31:21.975Z,60.90
2018-07-12T16:33:27.320Z,61.00
2018-07-12T16:37:36.883Z,61.30
2018-07-12T16:39:41.379Z,61.10
2018-07-12T16:41:45.941Z,61.10
2018-07-12T16:43:50.577Z,61.00
2018-07-12T16:45:56.204Z,61.00
2018-07-12T16:48:01.696Z,61.00
2018-07-12T16:50:07.121Z,60.90
2018-07-12T16:52:11.594Z,60.90
2018-07-12T16:54:16.312Z,60.90
2018-07-12T16:56:20.796Z,61.30
2018-07-12T16:58:25.246Z,61.50
2018-07-12T17:00:29.814Z,61.50
2018-07-12T17:02:34.291Z,61.70
2018-07-12T17:04:38.978Z,61.90
2018-07-12T17:06:43.525Z,62.10
2018-07-12T17:08:47.967Z,62.30
2018-07-12T17:10:52.415Z,62.30
2018-07-12T17:12:56.911Z,62.50
2018-07-12T17:15:01.667Z,62.40
2018-07-12T17:17:06.346Z,62.30
2018-07-12T17:19:10.770Z,62.50
2018-07-12T17:21:16.435Z,64.00
2018-07-12T17:23:20.968Z,63.80
2018-07-12T17:25:25.385Z,63.80
2018-07-12T17:27:29.840Z,63.70
2018-07-12T17:31:38.658Z,63.70
2018-07-12T17:33:43.107Z,63.70
2018-07-12T17:35:47.539Z,63.70
2018-07-12T17:37:52.138Z,63.70
2018-07-12T17:39:56.665Z,63.70
2018-07-12T17:42:01.168Z,63.70
2018-07-12T17:44:05.706Z,63.90
2018-07-12T17:46:10.148Z,63.90
2018-07-12T17:48:14.705Z,64.00
2018-07-12T17:50:19.176Z,64.10
2018-07-12T17:52:23.662Z,64.00
2018-07-12T17:54:28.161Z,64.00
2018-07-12T17:56:32.703Z,64.20
2018-07-12T17:58:37.399Z,64.00
2018-07-12T18:00:41.828Z,63.80
2018-07-12T18:02:46.335Z,63.80
2018-07-12T18:04:50.873Z,63.60
2018-07-12T18:06:56.506Z,63.60
2018-07-12T18:09:01.576Z,63.60
2018-07-12T18:11:06.197Z,63.50
2018-07-12T18:13:10.647Z,63.50
2018-07-12T18:15:15.138Z,63.50
2018-07-12T18:17:19.607Z,63.60
2018-07-12T18:19:24.039Z,63.70
2018-07-12T18:21:28.567Z,63.80
2018-07-12T18:23:33.093Z,64.90
2018-07-12T18:25:37.791Z,64.00
2018-07-12T18:27:42.325Z,64.20
2018-07-12T18:29:46.840Z,64.50
2018-07-12T18:33:55.442Z,64.60
2018-07-12T18:35:59.967Z,64.60
2018-07-12T18:38:07.134Z,64.40
2018-07-12T18:40:12.293Z,64.40
2018-07-12T18:44:21.164Z,64.30
2018-07-12T18:46:26.122Z,64.20
2018-07-12T18:48:31.344Z,64.30
2018-07-12T18:50:36.955Z,64.30
2018-07-12T18:52:41.414Z,64.40
2018-07-12T18:54:45.843Z,64.50
2018-07-12T18:56:50.432Z,64.40
2018-07-12T18:58:54.981Z,64.50
2018-07-12T19:00:59.479Z,64.70
2018-07-12T19:03:03.910Z,64.50
2018-07-12T19:05:09.240Z,64.10
2018-07-12T19:07:17.154Z,64.00
2018-07-12T19:09:21.698Z,64.10
2018-07-12T19:11:26.199Z,64.00
2018-07-12T19:13:31.401Z,63.90
2018-07-12T19:15:36.947Z,63.90
2018-07-12T19:17:41.442Z,64.00
2018-07-12T19:19:46.010Z,63.90
2018-07-12T19:21:50.441Z,63.80
2018-07-12T19:23:54.963Z,63.70
2018-07-12T19:25:59.481Z,63.90
2018-07-12T19:28:04.159Z,64.00
2018-07-12T19:30:08.920Z,64.00
2018-07-12T19:34:18.179Z,63.90
2018-07-12T19:36:22.770Z,64.00
2018-07-12T19:38:27.322Z,64.00
2018-07-12T19:40:31.779Z,63.90
2018-07-12T19:42:37.250Z,63.60
2018-07-12T19:44:41.783Z,62.90
2018-07-12T19:46:46.272Z,63.50
2018-07-12T19:48:50.738Z,64.30
2018-07-12T19:50:55.178Z,63.40
2018-07-12T19:52:59.600Z,63.20
2018-07-12T19:55:04.208Z,63.20
2018-07-12T19:57:09.175Z,63.10
2018-07-12T20:01:22.458Z,63.00
2018-07-12T20:03:27.922Z,62.80
2018-07-12T20:05:35.280Z,62.70
2018-07-12T20:07:42.300Z,62.70
2018-07-12T20:09:53.667Z,62.50
2018-07-12T20:12:05.222Z,62.60
2018-07-12T20:14:13.952Z,62.50
2018-07-12T20:16:18.913Z,63.30
2018-07-12T20:18:23.371Z,62.40
2018-07-12T20:20:28.204Z,62.50
2018-07-12T20:22:32.709Z,62.60
2018-07-12T20:24:38.031Z,62.70
2018-07-12T20:26:42.471Z,62.80
2018-07-12T20:28:46.930Z,63.00
2018-07-12T20:30:51.478Z,63.10
2018-07-12T20:32:56.015Z,63.50
2018-07-12T20:37:04.795Z,64.40
2018-07-12T20:39:12.418Z,63.50
2018-07-12T20:41:17.427Z,63.60
2018-07-12T20:43:23.326Z,63.80
2018-07-12T20:45:27.823Z,63.90
2018-07-12T20:47:32.394Z,64.00
2018-07-12T20:51:42.216Z,64.20
2018-07-12T20:53:46.712Z,64.30
2018-07-12T20:55:51.247Z,64.40
2018-07-12T20:57:55.706Z,64.40
2018-07-12T21:00:00.256Z,64.40
2018-07-12T21:04:09.235Z,64.50
2018-07-12T21:06:13.770Z,64.40
2018-07-12T21:08:18.670Z,64.50
2018-07-12T21:10:27.603Z,64.60
2018-07-12T21:14:37.624Z,64.70
2018-07-12T21:16:42.386Z,64.50
2018-07-12T21:18:46.823Z,64.40
2018-07-12T21:20:51.302Z,64.50
2018-07-12T21:22:55.806Z,64.50
2018-07-12T21:25:00.697Z,64.30
2018-07-12T21:27:05.305Z,65.20
2018-07-12T21:29:09.750Z,64.30
2018-07-12T21:31:14.206Z,64.10
2018-07-12T21:33:18.963Z,64.10
2018-07-12T21:35:23.444Z,64.00
2018-07-12T21:37:27.931Z,64.00
2018-07-12T21:39:32.507Z,63.90
2018-07-12T21:41:38.289Z,63.70
2018-07-12T21:43:45.200Z,63.80
2018-07-12T21:45:52.649Z,63.80
2018-07-12T21:47:58.191Z,63.80
2018-07-12T21:50:02.687Z,63.50
2018-07-12T21:52:07.302Z,63.50
2018-07-12T21:54:11.860Z,63.50
2018-07-12T21:56:16.390Z,63.40
2018-07-12T21:58:20.798Z,63.30
2018-07-12T22:00:25.286Z,63.30
2018-07-12T22:02:29.752Z,63.20
2018-07-12T22:04:34.288Z,63.10
2018-07-12T22:08:48.616Z,63.30
2018-07-12T22:10:55.177Z,63.40
2018-07-12T22:13:00.182Z,63.20
2018-07-12T22:15:04.716Z,63.30
2018-07-12T22:17:09.152Z,63.50
2018-07-12T22:19:13.578Z,63.60
2018-07-12T22:21:18.486Z,63.80
2018-07-12T22:23:22.999Z,63.60
2018-07-12T22:25:27.506Z,63.70
2018-07-12T22:27:31.979Z,64.60
2018-07-12T22:33:44.851Z,63.70
2018-07-12T22:35:49.367Z,63.70
2018-07-12T22:37:53.915Z,63.50
2018-07-12T22:39:58.663Z,63.40
2018-07-12T22:42:03.107Z,63.50
2018-07-12T22:44:07.542Z,64.30
2018-07-12T22:46:11.994Z,63.60
2018-07-12T22:48:16.556Z,63.60
2018-07-12T22:50:20.953Z,63.60
2018-07-12T22:52:25.422Z,63.50
2018-07-12T22:54:29.986Z,63.60
2018-07-12T22:56:34.419Z,63.70
2018-07-12T22:58:38.839Z,63.60
2018-07-12T23:00:43.308Z,63.50
2018-07-12T23:02:47.731Z,63.50
2018-07-12T23:04:52.234Z,63.50
2018-07-12T23:06:56.761Z,63.50
2018-07-12T23:09:01.223Z,63.40
2018-07-12T23:11:05.914Z,63.40
2018-07-12T23:13:10.413Z,63.50
2018-07-12T23:15:14.842Z,63.40
2018-07-12T23:17:19.299Z,63.40
2018-07-12T23:19:25.142Z,63.30
2018-07-12T23:21:29.681Z,63.40
2018-07-12T23:23:34.140Z,63.70
2018-07-12T23:25:38.953Z,63.30
2018-07-12T23:27:43.411Z,63.40
2018-07-12T23:29:48.277Z,63.40
2018-07-12T23:31:52.762Z,63.40
2018-07-12T23:33:57.239Z,63.40
2018-07-12T23:36:01.710Z,63.40
2018-07-12T23:38:06.939Z,64.30
2018-07-12T23:40:11.468Z,63.40
2018-07-12T23:42:16.001Z,63.50
2018-07-12T23:44:20.459Z,63.50
2018-07-12T23:46:24.985Z,63.50
2018-07-12T23:48:29.435Z,63.60
2018-07-12T23:52:38.870Z,63.70
2018-07-12T23:54:43.285Z,63.60
2018-07-12T23:56:47.771Z,63.60
2018-07-12T23:58:52.263Z,63.60
